Time;durP1;ratioP1;P1;durP2;ratioP2;P2;SDS_P1;SDS_P2;PMS_P1;PMS_P2;Temp;Humidity;BMP_temperature;BMP_pressure;BME280_temperature;BME280_humidity;BME280_pressure;Samples;Min_cycle;Max_cycle;Signal;HPM_P1;HPM_P2
2021/09/08 00:00:14;;;;;;;15.90;14.40;;;;;;;;;;5111107;27;24551;-58
2021/09/08 00:02:39;;;;;;;14.37;13.17;;;;;;;;;;5126435;27;24413;-58
2021/09/08 00:05:05;;;;;;;15.10;13.80;;;;;;;;;;5122798;27;24409;-58
2021/09/08 00:07:31;;;;;;;14.13;12.82;;;;;;;;;;5110096;28;24557;-58
2021/09/08 00:09:56;;;;;;;14.63;13.38;;;;;;;;;;5110119;28;24436;-58
2021/09/08 00:12:21;;;;;;;15.30;13.90;;;;;;;;;;5109312;28;24417;-58
2021/09/08 00:14:46;;;;;;;14.47;13.17;;;;;;;;;;5109596;27;25044;-58
2021/09/08 00:17:11;;;;;;;14.40;13.20;;;;;;;;;;5108975;28;24421;-56
2021/09/08 00:19:36;;;;;;;14.80;13.40;;;;;;;;;;5105776;28;24429;-56
2021/09/08 00:22:02;;;;;;;14.07;12.87;;;;;;;;;;5104191;28;24574;-56
2021/09/08 00:24:27;;;;;;;15.27;13.87;;;;;;;;;;5106624;27;25052;-56
2021/09/08 00:26:52;;;;;;;14.35;13.05;;;;;;;;;;5115516;27;24455;-56
2021/09/08 00:29:17;;;;;;;14.23;13.02;;;;;;;;;;5109239;27;24467;-57
2021/09/08 00:31:42;;;;;;;14.68;13.38;;;;;;;;;;5123817;27;25264;-58
2021/09/08 00:34:07;;;;;;;15.30;13.90;;;;;;;;;;5123748;27;24437;-57
2021/09/08 00:36:33;;;;;;;14.30;13.00;;;;;;;;;;5118685;27;24782;-58
2021/09/08 00:38:58;;;;;;;13.80;12.60;;;;;;;;;;5115037;27;24413;-58
2021/09/08 00:41:23;;;;;;;14.10;12.90;;;;;;;;;;5111029;27;24501;-57
2021/09/08 00:43:48;;;;;;;14.13;12.83;;;;;;;;;;5109377;28;25049;-58
2021/09/08 00:46:13;;;;;;;13.90;12.70;;;;;;;;;;5119922;27;24414;-58
2021/09/08 00:48:39;;;;;;;13.13;12.02;;;;;;;;;;5118833;27;24437;-58
2021/09/08 00:51:04;;;;;;;14.37;13.17;;;;;;;;;;5124958;27;24436;-58
2021/09/08 00:53:31;;;;;;;13.37;12.27;;;;;;;;;;5120826;27;24473;-58
2021/09/08 00:55:57;;;;;;;13.63;12.53;;;;;;;;;;5117883;27;24943;-57
2021/09/08 00:58:22;;;;;;;13.98;12.77;;;;;;;;;;5118413;27;24424;-59
2021/09/08 01:00:48;;;;;;;14.47;13.17;;;;;;;;;;5118207;27;24550;-58
2021/09/08 01:03:13;;;;;;;14.00;12.70;;;;;;;;;;5119890;27;24422;-58
2021/09/08 01:05:38;;;;;;;14.18;12.90;;;;;;;;;;5123062;27;24416;-57
2021/09/08 01:08:03;;;;;;;14.23;13.00;;;;;;;;;;5114562;27;24413;-58
2021/09/08 01:10:29;;;;;;;13.10;12.00;;;;;;;;;;5117896;27;24497;-58
2021/09/08 01:12:54;;;;;;;13.30;12.20;;;;;;;;;;5110308;27;24608;-57
2021/09/08 01:15:19;;;;;;;13.30;12.10;;;;;;;;;;5114551;27;24414;-57
2021/09/08 01:17:45;;;;;;;14.00;12.80;;;;;;;;;;5109229;27;24970;-58
2021/09/08 01:20:11;;;;;;;14.00;12.80;;;;;;;;;;5108426;28;24425;-57
2021/09/08 01:23:02;;;;;;;13.63;12.43;;;;;;;;;;5107822;28;24465;-57
2021/09/08 01:25:27;;;;;;;13.50;12.30;;;;;;;;;;5103765;28;24445;-57
2021/09/08 01:27:53;;;;;;;13.50;12.40;;;;;;;;;;5108474;28;24764;-57
2021/09/08 01:30:20;;;;;;;12.77;11.73;;;;;;;;;;5109007;27;24414;-57
2021/09/08 01:32:47;;;;;;;13.40;12.30;;;;;;;;;;5104364;28;24413;-58
2021/09/08 01:35:12;;;;;;;13.23;12.13;;;;;;;;;;5108171;28;24417;-57
2021/09/08 01:37:38;;;;;;;13.10;11.90;;;;;;;;;;5108001;28;24412;-57
2021/09/08 01:40:03;;;;;;;12.57;11.38;;;;;;;;;;5112787;27;24993;-57
2021/09/08 01:42:28;;;;;;;14.98;13.68;;;;;;;;;;5113815;27;24456;-58
2021/09/08 01:44:54;;;;;;;13.10;12.00;;;;;;;;;;5109183;27;25002;-57
2021/09/08 01:47:19;;;;;;;12.73;11.63;;;;;;;;;;5111808;27;24409;-57
2021/09/08 01:49:44;;;;;;;13.10;12.00;;;;;;;;;;5108507;28;24457;-58
2021/09/08 01:52:09;;;;;;;14.00;12.70;;;;;;;;;;5110470;27;24479;-58
2021/09/08 01:54:34;;;;;;;13.90;12.70;;;;;;;;;;5108839;28;24495;-57
2021/09/08 01:56:59;;;;;;;13.37;12.17;;;;;;;;;;5112682;27;25005;-57
2021/09/08 01:59:24;;;;;;;12.40;11.40;;;;;;;;;;5107429;28;24417;-57
2021/09/08 02:01:50;;;;;;;13.30;12.10;;;;;;;;;;5107994;28;24505;-58
2021/09/08 02:04:15;;;;;;;13.73;12.53;;;;;;;;;;5107114;28;24428;-58
2021/09/08 02:06:47;;;;;;;13.18;12.07;;;;;;;;;;5108280;28;24413;-58
2021/09/08 02:09:12;;;;;;;13.10;11.90;;;;;;;;;;5108773;27;24475;-58
2021/09/08 02:11:37;;;;;;;13.80;12.40;;;;;;;;;;5107027;28;24463;-58
2021/09/08 02:14:03;;;;;;;12.97;11.87;;;;;;;;;;5106143;28;24414;-58
2021/09/08 02:16:28;;;;;;;13.60;12.30;;;;;;;;;;5105659;28;25046;-58
2021/09/08 02:18:54;;;;;;;12.93;11.83;;;;;;;;;;5112720;28;24505;-58
2021/09/08 02:21:19;;;;;;;12.70;11.70;;;;;;;;;;5098832;28;24514;-58
2021/09/08 02:23:44;;;;;;;12.50;11.50;;;;;;;;;;5117399;28;24426;-58
2021/09/08 02:26:10;;;;;;;12.13;11.13;;;;;;;;;;5107170;28;24984;-58
2021/09/08 02:28:35;;;;;;;12.97;11.87;;;;;;;;;;5106953;28;24417;-58
2021/09/08 02:31:00;;;;;;;13.90;12.70;;;;;;;;;;5106646;28;24416;-58
2021/09/08 02:33:25;;;;;;;14.40;13.10;;;;;;;;;;5107028;28;25118;-58
2021/09/08 02:35:50;;;;;;;13.40;12.30;;;;;;;;;;5107145;28;24551;-58
2021/09/08 02:38:16;;;;;;;12.77;11.67;;;;;;;;;;5106863;28;24417;-58
2021/09/08 02:40:41;;;;;;;12.90;11.80;;;;;;;;;;5106865;28;24421;-58
2021/09/08 02:43:06;;;;;;;13.32;12.23;;;;;;;;;;5114650;28;24452;-58
2021/09/08 02:45:31;;;;;;;14.20;13.00;;;;;;;;;;5112923;28;24429;-58
2021/09/08 02:47:56;;;;;;;13.50;12.20;;;;;;;;;;5113443;28;24461;-58
2021/09/08 02:50:22;;;;;;;13.10;11.90;;;;;;;;;;5121448;28;25005;-58
2021/09/08 02:52:47;;;;;;;13.52;12.40;;;;;;;;;;5111111;28;24406;-57
2021/09/08 02:55:12;;;;;;;13.80;12.50;;;;;;;;;;5106152;28;24460;-58
2021/09/08 02:57:37;;;;;;;14.40;13.20;;;;;;;;;;5108531;28;24951;-58
2021/09/08 03:00:03;;;;;;;13.10;12.00;;;;;;;;;;5107330;28;24421;-58
2021/09/08 03:02:28;;;;;;;13.10;11.90;;;;;;;;;;5107476;28;24451;-58
2021/09/08 03:04:53;;;;;;;13.52;12.32;;;;;;;;;;5106047;28;24426;-58
2021/09/08 03:07:18;;;;;;;14.20;12.90;;;;;;;;;;5106751;28;24394;-58
2021/09/08 03:09:44;;;;;;;13.30;12.10;;;;;;;;;;5109130;28;24516;-58
2021/09/08 03:12:09;;;;;;;13.80;12.60;;;;;;;;;;5113316;28;24440;-57
2021/09/08 03:14:34;;;;;;;13.40;12.20;;;;;;;;;;5106292;28;25043;-57
2021/09/08 03:16:59;;;;;;;12.90;11.80;;;;;;;;;;5109700;28;24978;-58
2021/09/08 03:19:24;;;;;;;13.30;12.20;;;;;;;;;;5119719;28;25012;-58
2021/09/08 03:21:49;;;;;;;13.50;12.30;;;;;;;;;;5111940;28;24436;-58
2021/09/08 03:24:14;;;;;;;13.20;12.10;;;;;;;;;;5105284;28;24437;-58
2021/09/08 03:26:40;;;;;;;11.80;10.88;;;;;;;;;;5110246;28;25036;-58
2021/09/08 03:29:05;;;;;;;13.55;12.45;;;;;;;;;;5110185;28;24405;-57
2021/09/08 03:31:30;;;;;;;13.23;12.13;;;;;;;;;;5109783;28;24421;-57
2021/09/08 03:33:55;;;;;;;13.13;12.02;;;;;;;;;;5109870;28;24851;-58
2021/09/08 03:36:20;;;;;;;13.48;12.38;;;;;;;;;;5110942;27;24895;-57
2021/09/08 03:38:45;;;;;;;13.67;12.40;;;;;;;;;;5109940;28;24455;-58
2021/09/08 03:41:11;;;;;;;13.10;12.00;;;;;;;;;;5109319;28;24526;-58
2021/09/08 03:43:36;;;;;;;13.87;12.67;;;;;;;;;;5110405;28;24417;-57
2021/09/08 03:46:04;;;;;;;13.95;12.65;;;;;;;;;;5109614;28;24436;-59
2021/09/08 03:48:30;;;;;;;13.60;12.40;;;;;;;;;;5126173;27;24820;-58
2021/09/08 03:50:55;;;;;;;13.10;12.00;;;;;;;;;;5121975;27;24463;-58
2021/09/08 03:53:20;;;;;;;12.10;11.10;;;;;;;;;;5109639;28;24609;-57
2021/09/08 03:55:45;;;;;;;12.80;11.70;;;;;;;;;;5106213;28;24410;-57
2021/09/08 03:58:10;;;;;;;13.32;12.23;;;;;;;;;;5097969;28;24966;-57
2021/09/08 04:00:36;;;;;;;13.40;12.30;;;;;;;;;;5107565;27;24406;-57
2021/09/08 04:03:01;;;;;;;13.00;11.90;;;;;;;;;;5105718;28;24474;-57
2021/09/08 04:05:26;;;;;;;12.60;11.50;;;;;;;;;;5110172;28;24816;-58
2021/09/08 04:07:51;;;;;;;13.27;12.07;;;;;;;;;;5107737;27;24537;-58
2021/09/08 04:10:16;;;;;;;13.10;12.00;;;;;;;;;;5106944;28;24405;-57
2021/09/08 04:12:42;;;;;;;12.87;11.77;;;;;;;;;;5112788;27;24413;-57
2021/09/08 04:15:08;;;;;;;13.13;12.02;;;;;;;;;;5113195;27;24512;-57
2021/09/08 04:17:33;;;;;;;12.98;11.88;;;;;;;;;;5108063;28;24406;-58
2021/09/08 04:19:58;;;;;;;14.68;13.38;;;;;;;;;;5119724;27;24555;-57
2021/09/08 04:22:23;;;;;;;13.63;12.48;;;;;;;;;;5111707;27;24494;-58
2021/09/08 04:24:48;;;;;;;14.43;13.02;;;;;;;;;;5104494;27;24959;-58
2021/09/08 04:27:13;;;;;;;14.30;13.10;;;;;;;;;;5109007;28;24504;-57
2021/09/08 04:29:39;;;;;;;16.27;14.80;;;;;;;;;;5100831;28;24940;-57
2021/09/08 04:32:04;;;;;;;15.90;14.60;;;;;;;;;;5098983;28;24409;-57
2021/09/08 04:34:29;;;;;;;15.13;13.83;;;;;;;;;;5109058;27;24422;-58
2021/09/08 04:36:54;;;;;;;14.25;13.05;;;;;;;;;;5106278;28;24413;-58
2021/09/08 04:39:19;;;;;;;14.10;12.80;;;;;;;;;;5100996;27;24421;-58
2021/09/08 04:41:44;;;;;;;14.40;13.20;;;;;;;;;;5110472;27;24458;-58
2021/09/08 04:44:10;;;;;;;13.40;12.30;;;;;;;;;;5104638;28;24436;-58
2021/09/08 04:46:35;;;;;;;13.60;12.50;;;;;;;;;;5104655;28;25096;-58
2021/09/08 04:49:00;;;;;;;12.40;11.40;;;;;;;;;;5103564;28;24417;-57
2021/09/08 04:51:25;;;;;;;12.50;11.40;;;;;;;;;;5106768;27;24444;-58
2021/09/08 04:53:50;;;;;;;13.47;12.27;;;;;;;;;;5105978;27;24417;-58
2021/09/08 04:56:16;;;;;;;14.10;13.00;;;;;;;;;;5099544;28;24410;-57
2021/09/08 04:58:41;;;;;;;13.20;12.00;;;;;;;;;;5105397;28;24764;-57
2021/09/08 05:01:06;;;;;;;12.70;11.60;;;;;;;;;;5111561;27;24424;-57
2021/09/08 05:03:32;;;;;;;13.80;12.60;;;;;;;;;;5106886;28;24442;-58
2021/09/08 05:05:57;;;;;;;13.10;11.90;;;;;;;;;;5104911;27;24460;-59
2021/09/08 05:08:23;;;;;;;14.10;12.80;;;;;;;;;;5103829;27;24470;-59
2021/09/08 05:10:48;;;;;;;12.52;11.52;;;;;;;;;;5114579;27;24482;-60
2021/09/08 05:13:13;;;;;;;12.80;11.68;;;;;;;;;;5106988;27;24433;-60
2021/09/08 05:15:38;;;;;;;13.37;12.17;;;;;;;;;;5107008;28;24981;-61
2021/09/08 05:18:03;;;;;;;13.90;12.50;;;;;;;;;;5105666;28;24473;-61
2021/09/08 05:20:28;;;;;;;13.20;12.00;;;;;;;;;;5103279;27;24547;-61
2021/09/08 05:22:54;;;;;;;13.30;12.20;;;;;;;;;;5107905;27;24466;-61
2021/09/08 05:25:19;;;;;;;12.60;11.50;;;;;;;;;;5109633;27;24418;-61
2021/09/08 05:27:44;;;;;;;12.88;11.77;;;;;;;;;;5106667;28;24389;-61
2021/09/08 05:30:09;;;;;;;15.07;13.70;;;;;;;;;;5105435;27;24497;-64
2021/09/08 05:32:34;;;;;;;13.20;11.93;;;;;;;;;;5106991;28;24950;-61
2021/09/08 05:34:59;;;;;;;13.35;12.15;;;;;;;;;;5107224;28;24450;-61
2021/09/08 05:37:25;;;;;;;12.75;11.65;;;;;;;;;;5108114;28;25007;-61
2021/09/08 05:39:50;;;;;;;11.80;10.80;;;;;;;;;;5107729;28;24432;-61
2021/09/08 05:42:15;;;;;;;12.40;11.20;;;;;;;;;;5109177;28;24577;-61
2021/09/08 05:44:40;;;;;;;13.40;12.20;;;;;;;;;;5107878;28;24544;-61
2021/09/08 05:47:06;;;;;;;13.43;12.30;;;;;;;;;;5107794;28;24464;-61
2021/09/08 05:49:31;;;;;;;12.52;11.43;;;;;;;;;;5106411;28;24413;-60
2021/09/08 05:51:56;;;;;;;12.20;11.20;;;;;;;;;;5106638;27;24448;-61
2021/09/08 05:54:21;;;;;;;12.88;11.77;;;;;;;;;;5126916;27;24412;-61
2021/09/08 05:56:46;;;;;;;12.10;11.10;;;;;;;;;;5107673;28;24778;-61
2021/09/08 05:59:11;;;;;;;11.55;10.55;;;;;;;;;;5107850;28;24432;-61
2021/09/08 06:01:36;;;;;;;13.50;12.40;;;;;;;;;;5107571;28;24795;-62
2021/09/08 06:04:02;;;;;;;12.85;11.75;;;;;;;;;;5108399;27;24425;-62
2021/09/08 06:06:27;;;;;;;12.33;11.30;;;;;;;;;;5105965;28;24413;-62
2021/09/08 06:08:52;;;;;;;12.00;11.00;;;;;;;;;;5106542;28;24414;-61
2021/09/08 06:11:17;;;;;;;12.23;11.23;;;;;;;;;;5107417;28;24413;-61
2021/09/08 06:13:42;;;;;;;11.37;10.47;;;;;;;;;;5107617;28;24429;-61
2021/09/08 06:16:08;;;;;;;10.82;9.93;;;;;;;;;;5107125;28;24402;-62
2021/09/08 06:18:33;;;;;;;11.00;10.10;;;;;;;;;;5105522;28;24402;-61
2021/09/08 06:20:58;;;;;;;11.87;10.87;;;;;;;;;;5107471;28;24418;-61
2021/09/08 06:23:23;;;;;;;12.20;11.10;;;;;;;;;;5108125;28;24428;-61
2021/09/08 06:25:48;;;;;;;12.60;11.50;;;;;;;;;;5115647;28;24487;-61
2021/09/08 06:28:14;;;;;;;13.27;12.17;;;;;;;;;;5106685;28;24498;-61
2021/09/08 06:30:39;;;;;;;13.90;12.80;;;;;;;;;;5106945;28;24970;-61
2021/09/08 06:33:04;;;;;;;11.60;10.60;;;;;;;;;;5093254;28;24426;-61
2021/09/08 06:35:29;;;;;;;13.27;12.07;;;;;;;;;;5106862;28;24410;-60
2021/09/08 06:37:55;;;;;;;14.10;12.80;;;;;;;;;;5106862;28;24420;-61
2021/09/08 06:40:20;;;;;;;13.68;12.48;;;;;;;;;;5107052;28;24991;-60
2021/09/08 06:42:45;;;;;;;13.07;11.97;;;;;;;;;;5103418;28;24729;-62
2021/09/08 06:45:11;;;;;;;12.20;11.20;;;;;;;;;;5084199;28;24426;-62
2021/09/08 06:47:36;;;;;;;12.50;11.50;;;;;;;;;;5102013;28;24414;-61
2021/09/08 06:50:02;;;;;;;13.03;11.93;;;;;;;;;;5102604;28;24452;-61
2021/09/08 06:52:27;;;;;;;13.48;12.27;;;;;;;;;;5103902;28;24429;-62
2021/09/08 06:54:52;;;;;;;12.17;11.07;;;;;;;;;;5107899;28;24410;-62
2021/09/08 06:57:17;;;;;;;10.95;10.05;;;;;;;;;;5106001;28;25030;-63
2021/09/08 06:59:43;;;;;;;11.43;10.43;;;;;;;;;;5114526;27;25022;-60
2021/09/08 07:02:08;;;;;;;10.23;9.43;;;;;;;;;;5111115;28;24401;-60
2021/09/08 07:04:34;;;;;;;14.50;13.27;;;;;;;;;;5110843;27;24453;-60
2021/09/08 07:06:59;;;;;;;14.25;13.00;;;;;;;;;;5115939;27;24491;-60
2021/09/08 07:09:24;;;;;;;12.70;11.60;;;;;;;;;;5110826;28;24742;-60
2021/09/08 07:11:49;;;;;;;14.00;12.80;;;;;;;;;;5110116;28;24500;-61
2021/09/08 07:14:15;;;;;;;14.43;13.13;;;;;;;;;;5110549;28;24417;-60
2021/09/08 07:16:40;;;;;;;15.20;13.80;;;;;;;;;;5110830;28;24464;-60
2021/09/08 07:19:05;;;;;;;15.25;13.75;;;;;;;;;;5111757;27;24955;-61
2021/09/08 07:21:30;;;;;;;13.68;12.45;;;;;;;;;;5110399;28;24397;-61
2021/09/08 07:23:55;;;;;;;12.20;11.10;;;;;;;;;;5110117;28;24426;-61
2021/09/08 07:26:20;;;;;;;13.00;11.83;;;;;;;;;;5110553;28;24397;-60
2021/09/08 07:28:45;;;;;;;13.40;12.30;;;;;;;;;;5110163;28;24942;-61
2021/09/08 07:31:11;;;;;;;11.07;10.17;;;;;;;;;;5111162;27;24410;-61
2021/09/08 07:33:36;;;;;;;12.10;11.10;;;;;;;;;;5110343;28;24500;-61
2021/09/08 07:36:01;;;;;;;14.97;13.77;;;;;;;;;;5109911;28;24414;-60
2021/09/08 07:38:27;;;;;;;13.57;12.37;;;;;;;;;;5110206;28;25000;-61
2021/09/08 07:40:53;;;;;;;13.23;12.03;;;;;;;;;;5110618;28;24474;-61
2021/09/08 07:43:21;;;;;;;13.50;12.23;;;;;;;;;;5111003;27;24995;-61
2021/09/08 07:45:46;;;;;;;14.87;13.57;;;;;;;;;;5109587;28;25246;-60
2021/09/08 07:48:12;;;;;;;13.40;12.30;;;;;;;;;;5100912;28;24441;-60
2021/09/08 07:50:37;;;;;;;13.63;12.33;;;;;;;;;;5079107;28;24551;-60
2021/09/08 07:53:04;;;;;;;16.08;14.68;;;;;;;;;;5069833;28;24402;-60
2021/09/08 07:55:29;;;;;;;13.55;12.35;;;;;;;;;;5083498;28;24414;-60
2021/09/08 07:57:55;;;;;;;12.53;11.53;;;;;;;;;;5075968;28;25176;-60
2021/09/08 08:00:20;;;;;;;14.63;13.33;;;;;;;;;;5089408;28;24484;-61
2021/09/08 08:02:46;;;;;;;14.33;13.10;;;;;;;;;;5089939;28;24398;-61
2021/09/08 08:05:12;;;;;;;12.98;11.88;;;;;;;;;;5089905;28;24437;-60
2021/09/08 08:07:37;;;;;;;13.70;12.50;;;;;;;;;;5089918;28;24418;-60
2021/09/08 08:10:03;;;;;;;15.17;13.67;;;;;;;;;;5089964;28;24825;-60
2021/09/08 08:12:29;;;;;;;14.40;13.10;;;;;;;;;;5088380;28;24386;-60
2021/09/08 08:14:54;;;;;;;14.32;12.93;;;;;;;;;;5086984;28;24418;-60
2021/09/08 08:17:19;;;;;;;15.47;14.17;;;;;;;;;;5089551;28;24441;-60
2021/09/08 08:19:47;;;;;;;15.37;14.07;;;;;;;;;;5092164;28;24505;-61
2021/09/08 08:22:12;;;;;;;17.00;15.50;;;;;;;;;;5109888;27;24397;-61
2021/09/08 08:24:37;;;;;;;16.83;15.32;;;;;;;;;;5106002;28;24465;-60
2021/09/08 08:27:04;;;;;;;16.90;15.32;;;;;;;;;;5087923;28;24429;-61
2021/09/08 08:29:29;;;;;;;13.17;12.07;;;;;;;;;;5088922;28;24748;-60
2021/09/08 08:31:54;;;;;;;16.03;14.63;;;;;;;;;;5091890;28;24417;-61
2021/09/08 08:34:20;;;;;;;16.80;15.30;;;;;;;;;;5109791;28;24386;-61
2021/09/08 08:36:45;;;;;;;16.50;15.00;;;;;;;;;;5091750;28;24453;-61
2021/09/08 08:39:10;;;;;;;15.00;13.70;;;;;;;;;;5089122;28;24394;-60
2021/09/08 08:41:35;;;;;;;16.43;15.03;;;;;;;;;;5089176;28;24406;-60
2021/09/08 08:44:02;;;;;;;15.55;14.15;;;;;;;;;;5103780;28;24819;-60
2021/09/08 08:46:27;;;;;;;15.23;13.90;;;;;;;;;;5099798;28;24419;-60
2021/09/08 08:48:52;;;;;;;16.80;15.30;;;;;;;;;;5088945;28;24463;-61
2021/09/08 08:51:17;;;;;;;15.70;14.30;;;;;;;;;;5104146;28;24425;-60
2021/09/08 08:53:42;;;;;;;15.70;14.40;;;;;;;;;;5109074;28;24486;-60
2021/09/08 08:56:07;;;;;;;15.37;13.97;;;;;;;;;;5121081;27;25033;-61
2021/09/08 08:58:32;;;;;;;14.90;13.60;;;;;;;;;;5108879;28;24424;-61
2021/09/08 09:01:16;;;;;;;15.77;14.27;;;;;;;;;;5109080;28;24413;-60
2021/09/08 09:03:42;;;;;;;14.35;13.15;;;;;;;;;;5108816;28;24410;-60
2021/09/08 09:06:07;;;;;;;15.10;13.80;;;;;;;;;;5108855;28;24401;-60
2021/09/08 09:08:33;;;;;;;13.95;12.77;;;;;;;;;;5108549;27;24745;-61
2021/09/08 09:10:58;;;;;;;15.27;13.98;;;;;;;;;;5108729;28;24382;-61
2021/09/08 09:13:30;;;;;;;13.20;12.07;;;;;;;;;;5109038;28;24382;-60
2021/09/08 09:16:08;;;;;;;13.47;12.37;;;;;;;;;;5108961;28;24771;-60
2021/09/08 09:18:42;;;;;;;14.77;13.40;;;;;;;;;;5107951;28;24417;-61
2021/09/08 09:21:11;;;;;;;13.70;12.50;;;;;;;;;;5124378;27;24456;-61
2021/09/08 09:23:41;;;;;;;13.27;12.07;;;;;;;;;;5128806;27;24500;-60
2021/09/08 09:26:06;;;;;;;12.00;11.00;;;;;;;;;;5123003;27;24418;-60
2021/09/08 09:28:31;;;;;;;13.70;12.50;;;;;;;;;;5107321;28;25158;-60
2021/09/08 09:30:56;;;;;;;13.10;12.00;;;;;;;;;;5108023;28;24397;-61
2021/09/08 09:33:28;;;;;;;14.30;13.00;;;;;;;;;;5123671;27;24505;-60
2021/09/08 09:35:53;;;;;;;12.90;11.70;;;;;;;;;;5129031;27;24961;-60
2021/09/08 09:38:19;;;;;;;11.48;10.45;;;;;;;;;;5127633;27;24401;-61
2021/09/08 09:40:44;;;;;;;12.35;11.30;;;;;;;;;;5107923;28;24858;-60
2021/09/08 09:43:11;;;;;;;11.65;10.55;;;;;;;;;;5108129;28;24428;-61
2021/09/08 09:45:37;;;;;;;12.25;11.18;;;;;;;;;;5110659;27;24413;-61
2021/09/08 09:48:03;;;;;;;10.60;9.60;;;;;;;;;;5107791;28;24509;-61
2021/09/08 09:50:28;;;;;;;9.90;9.00;;;;;;;;;;5107494;28;24606;-61
2021/09/08 09:52:53;;;;;;;10.00;9.07;;;;;;;;;;5107724;28;24401;-61
2021/09/08 09:55:19;;;;;;;10.70;9.60;;;;;;;;;;5114725;27;24454;-61
2021/09/08 09:57:45;;;;;;;10.20;9.30;;;;;;;;;;5123712;27;24512;-60
2021/09/08 10:00:11;;;;;;;9.70;8.90;;;;;;;;;;5106688;28;24428;-61
2021/09/08 10:02:36;;;;;;;10.40;9.50;;;;;;;;;;5107619;28;24818;-61
2021/09/08 10:05:03;;;;;;;8.60;7.90;;;;;;;;;;5107181;28;24776;-60
2021/09/08 10:07:28;;;;;;;9.45;8.65;;;;;;;;;;5112092;27;24454;-60
2021/09/08 10:09:59;;;;;;;9.17;8.37;;;;;;;;;;5128128;27;25121;-60
2021/09/08 10:12:30;;;;;;;9.52;8.63;;;;;;;;;;5107229;28;24410;-60
2021/09/08 10:14:55;;;;;;;9.30;8.60;;;;;;;;;;5107191;28;24538;-60
2021/09/08 10:17:24;;;;;;;10.00;9.10;;;;;;;;;;5107720;28;24485;-60
2021/09/08 10:20:00;;;;;;;8.90;8.20;;;;;;;;;;5125135;27;24419;-60
2021/09/08 10:22:26;;;;;;;9.90;8.50;;;;;;;;;;5113386;27;24425;-59
2021/09/08 10:24:52;;;;;;;8.45;7.75;;;;;;;;;;5107409;28;24437;-60
2021/09/08 10:27:26;;;;;;;8.75;7.95;;;;;;;;;;5107349;28;24931;-59
2021/09/08 10:29:52;;;;;;;8.70;8.00;;;;;;;;;;5107307;28;24394;-60
2021/09/08 10:32:19;;;;;;;9.05;8.25;;;;;;;;;;5117056;28;24425;-60
2021/09/08 10:34:44;;;;;;;8.63;7.93;;;;;;;;;;5107877;28;24414;-60
2021/09/08 10:37:10;;;;;;;8.03;7.43;;;;;;;;;;5111475;28;24393;-60
2021/09/08 10:39:35;;;;;;;8.23;7.53;;;;;;;;;;5109333;28;24409;-60
2021/09/08 10:42:01;;;;;;;8.63;7.93;;;;;;;;;;5111180;28;24393;-60
2021/09/08 10:44:40;;;;;;;8.63;7.90;;;;;;;;;;5119574;27;25045;-60
2021/09/08 10:47:06;;;;;;;8.48;7.68;;;;;;;;;;5131631;27;24847;-60
2021/09/08 10:49:38;;;;;;;8.90;8.10;;;;;;;;;;5131905;27;24423;-62
2021/09/08 10:52:07;;;;;;;9.00;8.20;;;;;;;;;;5116087;27;24417;-61
2021/09/08 10:54:32;;;;;;;7.25;6.65;;;;;;;;;;5110979;28;24967;-60
2021/09/08 10:56:58;;;;;;;8.00;7.40;;;;;;;;;;5126940;27;24421;-61
2021/09/08 10:59:23;;;;;;;8.10;7.30;;;;;;;;;;5131859;27;24496;-61
2021/09/08 11:01:52;;;;;;;9.10;8.20;;;;;;;;;;5113521;27;24504;-61
2021/09/08 11:04:17;;;;;;;9.00;8.20;;;;;;;;;;5103641;28;24449;-61
2021/09/08 11:06:44;;;;;;;8.80;8.10;;;;;;;;;;5110394;28;24502;-60
2021/09/08 11:09:10;;;;;;;9.20;8.40;;;;;;;;;;5111335;27;24456;-61
2021/09/08 11:11:49;;;;;;;8.60;7.80;;;;;;;;;;5110249;28;24891;-60
2021/09/08 11:14:15;;;;;;;7.65;7.05;;;;;;;;;;5108679;28;24459;-61
2021/09/08 11:16:40;;;;;;;7.73;7.03;;;;;;;;;;5110647;28;24424;-60
2021/09/08 11:19:06;;;;;;;7.70;7.00;;;;;;;;;;5111435;27;24521;-62
2021/09/08 11:21:32;;;;;;;7.78;7.18;;;;;;;;;;5114378;27;24417;-61
2021/09/08 11:24:08;;;;;;;7.65;7.05;;;;;;;;;;5110998;27;24414;-61
2021/09/08 11:26:34;;;;;;;7.90;7.20;;;;;;;;;;5106579;28;24989;-61
2021/09/08 11:29:01;;;;;;;8.57;7.70;;;;;;;;;;5107068;28;24413;-62
2021/09/08 11:31:31;;;;;;;8.02;7.32;;;;;;;;;;5108936;27;24825;-61
2021/09/08 11:33:56;;;;;;;7.80;7.20;;;;;;;;;;5094083;27;24452;-61
2021/09/08 11:36:21;;;;;;;8.00;7.30;;;;;;;;;;5101732;28;24987;-61
2021/09/08 11:38:56;;;;;;;9.10;8.00;;;;;;;;;;5107239;28;24458;-60
2021/09/08 11:41:21;;;;;;;6.90;6.30;;;;;;;;;;5127218;27;24422;-61
2021/09/08 11:43:50;;;;;;;7.80;7.10;;;;;;;;;;5108214;27;24783;-60
2021/09/08 11:46:16;;;;;;;7.60;7.10;;;;;;;;;;5106129;28;24414;-61
2021/09/08 11:48:42;;;;;;;8.67;7.97;;;;;;;;;;5104119;28;25402;-60
2021/09/08 11:51:08;;;;;;;8.18;7.47;;;;;;;;;;5108253;27;24476;-60
2021/09/08 11:53:33;;;;;;;8.45;7.70;;;;;;;;;;5107312;28;24515;-60
2021/09/08 11:56:08;;;;;;;8.60;7.90;;;;;;;;;;5118795;27;24439;-60
2021/09/08 11:58:33;;;;;;;8.40;7.60;;;;;;;;;;5111247;27;24420;-60
2021/09/08 12:00:59;;;;;;;7.57;6.97;;;;;;;;;;5124516;27;24458;-60
2021/09/08 12:03:25;;;;;;;7.72;7.13;;;;;;;;;;5127326;27;24852;-62
2021/09/08 12:05:50;;;;;;;8.07;7.37;;;;;;;;;;5118640;27;24429;-60
2021/09/08 12:08:21;;;;;;;7.68;6.97;;;;;;;;;;5105706;28;24478;-61
2021/09/08 12:10:47;;;;;;;6.95;6.45;;;;;;;;;;5115059;27;24424;-60
2021/09/08 12:13:25;;;;;;;7.03;6.45;;;;;;;;;;5101991;28;24955;-61
2021/09/08 12:15:50;;;;;;;6.60;6.10;;;;;;;;;;5103860;28;24504;-60
2021/09/08 12:18:15;;;;;;;6.80;6.20;;;;;;;;;;5106817;27;24405;-60
2021/09/08 12:20:41;;;;;;;6.97;6.38;;;;;;;;;;5127275;27;25120;-60
2021/09/08 12:23:21;;;;;;;9.00;6.90;;;;;;;;;;5120588;27;24418;-60
2021/09/08 12:26:01;;;;;;;7.10;6.50;;;;;;;;;;5105920;28;24416;-61
2021/09/08 12:28:26;;;;;;;7.07;6.47;;;;;;;;;;5105987;28;24412;-61
2021/09/08 12:31:11;;;;;;;7.40;6.80;;;;;;;;;;5113844;27;24406;-61
2021/09/08 12:33:50;;;;;;;8.68;6.70;;;;;;;;;;5105527;28;24625;-60
2021/09/08 12:36:15;;;;;;;7.03;6.43;;;;;;;;;;5105480;28;24434;-59
2021/09/08 12:38:41;;;;;;;6.37;5.87;;;;;;;;;;5105472;28;24414;-59
2021/09/08 12:41:15;;;;;;;7.28;6.65;;;;;;;;;;5106297;27;24493;-60
2021/09/08 12:43:42;;;;;;;7.72;7.05;;;;;;;;;;5097741;28;24495;-60
2021/09/08 12:46:07;;;;;;;8.38;7.57;;;;;;;;;;5097207;28;24452;-59
2021/09/08 12:48:32;;;;;;;8.05;7.35;;;;;;;;;;5103629;27;24449;-60
2021/09/08 12:50:58;;;;;;;8.00;7.30;;;;;;;;;;5102152;28;24445;-60
2021/09/08 12:53:23;;;;;;;7.23;6.63;;;;;;;;;;5088056;27;24414;-61
2021/09/08 12:55:48;;;;;;;7.30;6.70;;;;;;;;;;5083538;28;24501;-61
2021/09/08 12:58:13;;;;;;;7.60;7.00;;;;;;;;;;5096690;28;24497;-61
2021/09/08 13:00:38;;;;;;;7.00;6.50;;;;;;;;;;5075222;27;24422;-62
2021/09/08 13:03:04;;;;;;;7.10;6.40;;;;;;;;;;5078978;28;24413;-61
2021/09/08 13:05:29;;;;;;;8.00;7.30;;;;;;;;;;5089044;28;24920;-61
2021/09/08 13:07:55;;;;;;;7.30;6.70;;;;;;;;;;5095470;28;24406;-62
2021/09/08 13:10:20;;;;;;;7.10;6.50;;;;;;;;;;5096540;28;24470;-60
2021/09/08 13:12:48;;;;;;;7.33;6.63;;;;;;;;;;5106444;28;24819;-61
2021/09/08 13:15:14;;;;;;;6.50;5.90;;;;;;;;;;5103784;28;25013;-61
2021/09/08 13:17:39;;;;;;;6.47;5.97;;;;;;;;;;5107984;28;24578;-61
2021/09/08 13:20:05;;;;;;;7.30;6.60;;;;;;;;;;5101936;28;24426;-61
2021/09/08 13:22:30;;;;;;;7.10;6.50;;;;;;;;;;5113886;27;25107;-61
2021/09/08 13:24:55;;;;;;;6.70;6.10;;;;;;;;;;5110379;27;25006;-61
2021/09/08 13:27:24;;;;;;;7.57;6.88;;;;;;;;;;5102544;28;24479;-60
2021/09/08 13:29:49;;;;;;;7.40;6.80;;;;;;;;;;5103594;28;24784;-60
2021/09/08 13:32:14;;;;;;;6.93;6.43;;;;;;;;;;5096230;28;24963;-60
2021/09/08 13:34:39;;;;;;;6.97;6.38;;;;;;;;;;5106804;27;24413;-61
2021/09/08 13:37:04;;;;;;;7.07;6.38;;;;;;;;;;5106790;28;24516;-60
2021/09/08 13:39:29;;;;;;;7.28;6.75;;;;;;;;;;5103321;28;24410;-60
2021/09/08 13:41:55;;;;;;;7.80;7.10;;;;;;;;;;5104113;27;24422;-61
2021/09/08 13:44:20;;;;;;;7.23;6.53;;;;;;;;;;5106702;28;24571;-61
2021/09/08 13:46:45;;;;;;;7.25;6.53;;;;;;;;;;5106716;28;24410;-61
2021/09/08 13:49:10;;;;;;;6.77;6.20;;;;;;;;;;5096210;28;24983;-61
2021/09/08 13:51:35;;;;;;;7.10;6.50;;;;;;;;;;5097818;28;24498;-61
2021/09/08 13:54:00;;;;;;;6.90;6.30;;;;;;;;;;5106688;28;24729;-61
2021/09/08 13:56:26;;;;;;;7.35;6.75;;;;;;;;;;5105834;27;24768;-61
2021/09/08 13:58:51;;;;;;;6.70;6.20;;;;;;;;;;5106394;28;24445;-61
2021/09/08 14:01:16;;;;;;;6.80;6.30;;;;;;;;;;5105342;28;24528;-61
2021/09/08 14:03:41;;;;;;;7.40;6.70;;;;;;;;;;5105776;28;24993;-61
2021/09/08 14:06:06;;;;;;;7.00;6.40;;;;;;;;;;5107545;28;24459;-61
2021/09/08 14:08:33;;;;;;;7.37;6.77;;;;;;;;;;5115099;27;24994;-62
2021/09/08 14:10:58;;;;;;;6.50;6.00;;;;;;;;;;5106610;28;25115;-61
2021/09/08 14:13:23;;;;;;;7.73;7.13;;;;;;;;;;5107025;28;24455;-59
2021/09/08 14:15:49;;;;;;;6.90;6.40;;;;;;;;;;5106940;28;24413;-61
2021/09/08 14:18:14;;;;;;;7.30;6.60;;;;;;;;;;5112967;28;24755;-61